METAR Data
IDs: Format: Raw Decoded Include TAF

Data at: 2114 UTC 01 Dec 2021

KPNM 012056Z AUTO 21007KT 10SM CLR 10/04 A2956 RMK AO2